Time;durP1;ratioP1;P1;durP2;ratioP2;P2;SDS_P1;SDS_P2;PMS_P1;PMS_P2;Temp;Humidity;BMP_temperature;BMP_pressure;BME280_temperature;BME280_humidity;BME280_pressure;Samples;Min_cycle;Max_cycle;Signal;HPM_P1;HPM_P2
2021/12/11 00:01:43;;;;;;;227.30;103.07;;;;;;;2.84;84.60;93493.23;1701645;82;21031;-56
2021/12/11 00:04:21;;;;;;;249.52;113.05;;;;;;;2.82;84.62;93491.52;1705703;83;21074;-57
2021/12/11 00:06:52;;;;;;;193.50;94.42;;;;;;;2.84;85.04;93485.09;1710439;82;21210;-57
2021/12/11 00:09:27;;;;;;;214.05;99.52;;;;;;;2.94;85.19;93486.74;1702008;83;21144;-58
2021/12/11 00:12:05;;;;;;;170.80;83.50;;;;;;;2.96;84.80;93487.07;1709823;83;21108;-57
2021/12/11 00:14:36;;;;;;;186.50;88.52;;;;;;;2.94;84.61;93488.09;1714119;82;21124;-57
2021/12/11 00:17:03;;;;;;;171.10;85.17;;;;;;;2.85;84.71;93487.97;1704103;82;20990;-61
2021/12/11 00:19:32;;;;;;;150.05;71.30;;;;;;;2.84;84.93;93495.95;1712795;82;21137;-57
2021/12/11 00:22:13;;;;;;;144.62;68.80;;;;;;;2.85;84.95;93501.55;1679358;82;21113;-57
2021/12/11 00:24:40;;;;;;;150.57;75.25;;;;;;;2.86;84.98;93496.28;1706297;82;21051;-56
2021/12/11 00:27:14;;;;;;;141.60;73.00;;;;;;;2.85;84.91;93481.18;1701962;83;20930;-57
2021/12/11 00:29:41;;;;;;;126.42;63.17;;;;;;;2.82;84.83;93473.87;1690608;83;21102;-58
2021/12/11 00:32:12;;;;;;;113.65;57.03;;;;;;;2.77;84.91;93476.53;1697310;83;21117;-57
2021/12/11 00:34:43;;;;;;;124.02;55.75;;;;;;;2.74;84.91;93487.47;1713229;83;21099;-56
2021/12/11 00:37:12;;;;;;;126.07;60.25;;;;;;;2.66;84.95;93494.29;1705872;83;21114;-58
2021/12/11 00:39:53;;;;;;;104.15;53.10;;;;;;;2.60;85.20;93502.77;1698552;83;21137;-56
2021/12/11 00:42:22;;;;;;;115.37;58.40;;;;;;;2.64;85.45;93500.72;1699944;82;21281;-58
2021/12/11 00:44:54;;;;;;;108.92;56.92;;;;;;;2.67;85.55;93510.13;1694531;83;21079;-56
2021/12/11 00:47:25;;;;;;;96.70;50.03;;;;;;;2.72;85.70;93515.65;1692142;82;21038;-57
2021/12/11 00:50:00;;;;;;;100.87;49.77;;;;;;;2.77;85.63;93512.41;1705153;83;21031;-57
2021/12/11 00:52:38;;;;;;;88.58;45.83;;;;;;;2.72;85.42;93514.29;1681584;83;20990;-57
2021/12/11 00:55:10;;;;;;;80.67;42.73;;;;;;;2.70;85.54;93515.31;1712225;83;21007;-57
2021/12/11 00:57:38;;;;;;;69.72;39.80;;;;;;;2.67;85.54;93521.60;1699268;83;21182;-60
2021/12/11 01:00:10;;;;;;;81.90;44.63;;;;;;;2.70;85.53;93531.61;1708814;83;20996;-57
2021/12/11 01:02:38;;;;;;;86.92;45.63;;;;;;;2.65;85.48;93532.88;1702451;83;21511;-56
2021/12/11 01:05:06;;;;;;;87.45;44.20;;;;;;;2.67;85.92;93541.96;1689182;82;21090;-57
2021/12/11 01:07:33;;;;;;;83.80;41.23;;;;;;;2.72;85.89;93536.76;1692695;83;21047;-57
2021/12/11 01:10:14;;;;;;;86.92;43.42;;;;;;;2.73;85.86;93542.96;1678376;83;21526;-56
2021/12/11 01:12:50;;;;;;;84.95;44.40;;;;;;;2.74;85.74;93543.13;1720940;83;21064;-56
2021/12/11 01:15:19;;;;;;;79.70;41.68;;;;;;;2.76;85.77;93540.75;1692022;83;20994;-57
2021/12/11 01:18:21;;;;;;;82.55;43.98;;;;;;;2.76;85.53;93541.53;1690169;83;21042;-58
2021/12/11 01:20:58;;;;;;;91.42;44.03;;;;;;;2.71;85.49;93543.98;1669881;83;21082;-57
2021/12/11 01:25:56;;;;;;;82.90;42.00;;;;;;;2.63;85.57;93548.05;1650924;86;21027;-57
2021/12/11 01:28:23;;;;;;;85.50;46.18;;;;;;;2.61;85.61;93543.64;1614814;87;21725;-58
2021/12/11 01:30:50;;;;;;;84.03;46.25;;;;;;;2.58;85.65;93540.43;1617437;85;21089;-58
2021/12/11 01:33:17;;;;;;;83.95;43.78;;;;;;;2.59;85.74;93540.02;1642485;85;21128;-57
2021/12/11 01:35:43;;;;;;;83.25;42.55;;;;;;;2.61;85.89;93538.99;1641389;86;23013;-57
2021/12/11 01:38:15;;;;;;;67.67;34.88;;;;;;;2.63;85.96;93537.97;1634543;86;21178;-56
2021/12/11 01:40:44;;;;;;;88.33;44.03;;;;;;;2.62;85.92;93543.23;1642366;86;21105;-58
2021/12/11 01:43:11;;;;;;;77.62;40.43;;;;;;;2.61;85.95;93538.22;1645058;86;21529;-57
2021/12/11 01:45:38;;;;;;;79.75;41.53;;;;;;;2.64;86.17;93553.64;1644978;86;21041;-56
2021/12/11 01:48:05;;;;;;;77.00;41.75;;;;;;;2.74;86.54;93547.98;1631309;86;21170;-56
2021/12/11 01:50:37;;;;;;;106.35;54.65;;;;;;;2.85;86.39;93543.64;1633818;85;21046;-62
2021/12/11 01:53:18;;;;;;;101.30;49.13;;;;;;;2.92;86.38;93538.01;1671813;85;21453;-56
2021/12/11 01:55:54;;;;;;;86.85;47.88;;;;;;;2.98;86.16;93540.36;1673615;84;20964;-57
2021/12/11 01:58:26;;;;;;;75.32;40.08;;;;;;;3.00;85.87;93536.63;1666395;84;21044;-57
2021/12/11 02:00:58;;;;;;;78.80;42.03;;;;;;;2.97;85.57;93544.27;1643475;85;21095;-56
2021/12/11 02:03:28;;;;;;;78.65;41.95;;;;;;;2.92;85.23;93557.02;1658763;84;21087;-58
2021/12/11 02:05:56;;;;;;;81.40;40.60;;;;;;;2.88;85.19;93556.36;1671263;85;20981;-57
2021/12/11 02:08:29;;;;;;;77.58;39.25;;;;;;;2.82;85.17;93561.53;1649203;85;20988;-57
2021/12/11 02:11:08;;;;;;;78.37;40.65;;;;;;;2.83;85.37;93560.95;1657266;84;21202;-57
2021/12/11 02:13:47;;;;;;;86.05;42.70;;;;;;;2.89;85.75;93556.52;1667058;85;21838;-56
2021/12/11 02:16:29;;;;;;;83.55;43.15;;;;;;;2.98;85.69;93544.44;1666099;85;21093;-57
2021/12/11 02:19:02;;;;;;;80.10;42.20;;;;;;;3.01;85.25;93543.58;1621594;85;21024;-57
2021/12/11 02:21:37;;;;;;;77.87;40.55;;;;;;;3.03;85.35;93551.48;1661037;85;21023;-57
2021/12/11 02:24:08;;;;;;;69.55;36.25;;;;;;;3.10;85.14;93555.97;1650462;85;20983;-56
2021/12/11 02:26:38;;;;;;;70.67;35.98;;;;;;;3.10;84.85;93549.17;1655381;85;21846;-56
2021/12/11 02:29:35;;;;;;;91.35;50.78;;;;;;;3.15;85.38;93553.49;1665568;85;21588;-56
2021/12/11 02:32:28;;;;;;;88.15;46.92;;;;;;;3.23;85.19;93551.35;1651496;85;20971;-57
2021/12/11 02:34:58;;;;;;;107.32;53.13;;;;;;;3.24;84.58;93548.80;1655882;84;21051;-57
2021/12/11 02:37:37;;;;;;;96.42;51.00;;;;;;;3.27;84.66;93552.76;1650298;85;20974;-56
2021/12/11 02:40:32;;;;;;;113.37;62.05;;;;;;;3.32;84.42;93554.20;1655504;85;21227;-57
2021/12/11 02:43:05;;;;;;;105.15;51.60;;;;;;;3.39;84.39;93560.81;1660040;85;21556;-57
2021/12/11 02:45:40;;;;;;;96.63;52.10;;;;;;;3.44;84.21;93558.31;1650411;85;21154;-57
2021/12/11 02:48:13;;;;;;;98.55;51.02;;;;;;;3.47;83.93;93562.91;1653032;85;20987;-56
2021/12/11 02:50:52;;;;;;;85.77;45.40;;;;;;;3.50;83.52;93565.52;1656410;85;21126;-57
2021/12/11 02:53:30;;;;;;;83.30;45.67;;;;;;;3.46;82.81;93570.88;1662400;85;21120;-59
2021/12/11 02:56:14;;;;;;;71.67;38.58;;;;;;;3.34;82.50;93581.70;1653334;85;20982;-58
2021/12/11 02:58:45;;;;;;;93.95;47.30;;;;;;;3.25;82.46;93589.73;1671807;84;21478;-56
2021/12/11 03:01:24;;;;;;;87.63;45.60;;;;;;;3.13;82.68;93599.93;1658415;85;21007;-56
2021/12/11 03:03:58;;;;;;;76.75;41.90;;;;;;;3.03;82.94;93604.44;1650081;85;21017;-56
2021/12/11 03:06:26;;;;;;;81.15;44.38;;;;;;;3.03;83.42;93592.83;1661608;85;27073;-58
2021/12/11 03:08:55;;;;;;;88.87;45.85;;;;;;;3.12;83.61;93603.84;1640080;86;21058;-57
2021/12/11 03:11:24;;;;;;;88.87;47.27;;;;;;;3.21;83.54;93606.11;1637904;86;21184;-56
2021/12/11 03:13:51;;;;;;;84.15;44.83;;;;;;;3.27;83.30;93610.44;1630024;86;21113;-57
2021/12/11 03:16:21;;;;;;;70.85;43.25;;;;;;;3.29;82.89;93606.69;1646617;85;21133;-60
2021/12/11 03:18:48;;;;;;;86.63;46.60;;;;;;;3.24;82.58;93603.14;1639530;86;21177;-57
2021/12/11 03:21:16;;;;;;;84.13;44.42;;;;;;;3.20;82.54;93613.34;1673295;84;21502;-57
2021/12/11 03:23:43;;;;;;;78.55;42.93;;;;;;;3.13;82.35;93616.23;1671418;84;21011;-56
2021/12/11 03:26:10;;;;;;;96.10;51.50;;;;;;;3.01;82.27;93616.91;1678067;84;21069;-57
2021/12/11 03:28:38;;;;;;;110.50;53.87;;;;;;;2.93;82.41;93615.58;1678605;84;21709;-57
2021/12/11 03:31:06;;;;;;;112.70;52.62;;;;;;;2.87;82.57;93611.86;1675554;84;21836;-56
2021/12/11 03:33:37;;;;;;;105.37;51.77;;;;;;;2.88;83.00;93613.38;1664755;83;20977;-56
2021/12/11 03:36:06;;;;;;;84.42;42.10;;;;;;;2.86;82.83;93612.44;1702759;83;21245;-56
2021/12/11 03:38:33;;;;;;;95.95;46.68;;;;;;;2.82;82.80;93606.92;1689180;83;21498;-56
2021/12/11 03:41:01;;;;;;;89.50;43.70;;;;;;;2.74;82.85;93611.00;1691256;82;21104;-58
2021/12/11 03:43:29;;;;;;;97.88;46.73;;;;;;;2.71;83.14;93611.86;1664467;84;21157;-57
2021/12/11 03:46:01;;;;;;;99.42;46.77;;;;;;;2.69;83.16;93606.09;1673058;84;20984;-58
2021/12/11 03:48:32;;;;;;;107.27;50.12;;;;;;;2.60;83.18;93589.04;1695358;82;21022;-58
2021/12/11 03:51:00;;;;;;;104.87;51.77;;;;;;;2.55;83.58;93585.48;1696422;83;26596;-57
2021/12/11 03:53:27;;;;;;;108.40;54.42;;;;;;;2.64;84.30;93582.15;1685503;83;21567;-58
2021/12/11 03:55:59;;;;;;;97.50;53.40;;;;;;;2.67;84.18;93584.05;1682631;83;21794;-58
2021/12/11 03:58:26;;;;;;;92.10;50.15;;;;;;;2.71;84.23;93589.53;1706562;83;20973;-57
2021/12/11 04:00:59;;;;;;;78.35;42.90;;;;;;;2.71;84.03;93579.28;1700976;82;21527;-57
2021/12/11 04:03:28;;;;;;;91.28;48.63;;;;;;;2.72;84.00;93576.73;1693035;83;21035;-57
2021/12/11 04:05:55;;;;;;;70.70;37.25;;;;;;;2.65;84.00;93575.56;1695931;83;21113;-57
2021/12/11 04:08:27;;;;;;;79.15;40.48;;;;;;;2.62;84.01;93581.81;1688509;83;21150;-58
2021/12/11 04:10:55;;;;;;;73.37;39.00;;;;;;;2.54;84.05;93587.25;1705442;83;21032;-58
2021/12/11 04:13:22;;;;;;;111.08;52.43;;;;;;;2.47;84.13;93595.58;1708492;83;21539;-57
2021/12/11 04:15:51;;;;;;;105.50;48.95;;;;;;;2.42;84.30;93594.70;1713638;83;21090;-58
2021/12/11 04:18:20;;;;;;;96.70;45.83;;;;;;;2.42;84.76;93585.98;1717008;83;21546;-57
2021/12/11 04:20:48;;;;;;;115.42;52.40;;;;;;;2.45;84.75;93585.13;1688803;83;21155;-60
2021/12/11 04:23:16;;;;;;;102.07;49.80;;;;;;;2.42;84.80;93589.28;1693188;82;21085;-56
2021/12/11 04:25:47;;;;;;;99.28;50.48;;;;;;;2.44;85.11;93585.55;1705362;83;21022;-57
2021/12/11 04:28:16;;;;;;;98.17;50.08;;;;;;;2.53;85.52;93587.09;1700055;83;21200;-57
2021/12/11 04:30:43;;;;;;;96.02;47.00;;;;;;;2.67;85.54;93600.33;1701374;83;21027;-57
2021/12/11 04:33:10;;;;;;;98.47;48.70;;;;;;;2.78;85.20;93589.95;1701767;83;21145;-57
2021/12/11 04:35:38;;;;;;;109.78;47.40;;;;;;;2.80;84.68;93599.21;1695756;83;20967;-58
2021/12/11 04:38:06;;;;;;;95.57;47.93;;;;;;;2.79;84.48;93589.54;1712884;83;20989;-56
2021/12/11 04:40:38;;;;;;;87.55;43.25;;;;;;;2.73;84.38;93604.80;1692557;83;21526;-57
2021/12/11 04:43:09;;;;;;;121.77;59.03;;;;;;;2.66;84.29;93620.52;1711128;82;20992;-57
2021/12/11 04:45:42;;;;;;;108.70;52.40;;;;;;;2.58;84.39;93613.72;1701883;82;21487;-57
2021/12/11 04:48:26;;;;;;;113.40;56.48;;;;;;;2.58;84.62;93617.78;1700915;83;21217;-57
2021/12/11 05:04:01;;;;;;;126.72;60.70;;;;;;;2.64;84.34;93612.01;1700485;82;21535;-58
2021/12/11 05:11:13;;;;;;;108.87;53.63;;;;;;;2.47;84.27;93634.93;1659515;84;22780;-57
2021/12/11 05:13:40;;;;;;;113.85;55.03;;;;;;;2.36;84.38;93633.03;1698658;83;21608;-58
2021/12/11 05:16:11;;;;;;;95.47;48.63;;;;;;;2.32;84.49;93632.36;1711838;82;21008;-57
2021/12/11 05:18:40;;;;;;;80.40;43.25;;;;;;;2.30;84.63;93637.45;1707070;83;21450;-57
2021/12/11 05:21:11;;;;;;;82.33;45.33;;;;;;;2.25;84.76;93639.28;1710554;83;20984;-57
2021/12/11 05:23:38;;;;;;;110.95;54.40;;;;;;;2.17;84.98;93643.34;1701701;82;21128;-56
2021/12/11 05:26:05;;;;;;;129.38;61.83;;;;;;;2.10;85.23;93639.44;1690085;83;20972;-54
2021/12/11 05:28:33;;;;;;;97.35;49.60;;;;;;;2.09;85.72;93641.95;1711274;83;21022;-57
2021/12/11 05:31:02;;;;;;;116.22;53.87;;;;;;;2.18;85.78;93640.19;1682008;83;21086;-58
2021/12/11 05:33:31;;;;;;;102.80;48.05;;;;;;;2.17;85.55;93644.09;1710510;83;21620;-59
2021/12/11 05:35:58;;;;;;;82.15;43.58;;;;;;;2.21;85.90;93649.45;1662900;84;21211;-58
2021/12/11 05:38:26;;;;;;;92.85;47.10;;;;;;;2.22;85.65;93650.98;1705723;82;20972;-58
2021/12/11 05:40:59;;;;;;;94.62;47.17;;;;;;;2.22;85.62;93657.18;1717460;83;21006;-58
2021/12/11 05:43:27;;;;;;;100.10;49.53;;;;;;;2.22;85.58;93645.55;1698054;83;21571;-59
2021/12/11 05:45:54;;;;;;;94.22;45.43;;;;;;;2.20;85.51;93650.63;1695058;83;20999;-58
2021/12/11 05:48:20;;;;;;;90.17;45.40;;;;;;;2.21;85.39;93648.09;1692207;82;21264;-61
2021/12/11 05:50:54;;;;;;;82.50;41.35;;;;;;;2.16;85.37;93657.48;1657695;85;21584;-58
2021/12/11 05:53:21;;;;;;;82.42;42.13;;;;;;;2.14;85.47;93663.17;1685096;82;21189;-58
2021/12/11 05:55:51;;;;;;;89.60;44.05;;;;;;;2.12;85.42;93673.69;1705563;82;21021;-58
2021/12/11 05:58:34;;;;;;;88.03;46.40;;;;;;;2.09;85.48;93674.49;1687220;83;21465;-63
2021/12/11 06:00:47;;;;;;;121.77;60.60;;;;;;;2.10;85.51;93670.02;1674011;83;21553;-59
2021/12/11 06:03:14;;;;;;;98.05;51.45;;;;;;;2.11;85.60;93672.91;1693402;82;21149;-58
2021/12/11 06:05:41;;;;;;;80.12;43.90;;;;;;;2.18;85.81;93684.20;1698534;83;20979;-58
2021/12/11 06:08:08;;;;;;;79.22;41.05;;;;;;;2.23;85.78;93689.13;1713003;83;21008;-58
2021/12/11 06:10:36;;;;;;;100.70;57.48;;;;;;;2.24;85.57;93693.36;1691331;83;20996;-59
2021/12/11 06:13:03;;;;;;;114.80;71.80;;;;;;;2.22;85.66;93700.58;1716384;83;21204;-59
2021/12/11 06:15:32;;;;;;;72.50;39.30;;;;;;;2.32;85.91;93709.69;1695765;83;21075;-58
2021/12/11 06:17:59;;;;;;;76.97;41.53;;;;;;;2.36;85.53;93722.58;1678053;83;21639;-58
2021/12/11 06:20:28;;;;;;;77.47;40.40;;;;;;;2.36;85.49;93730.11;1649511;83;20970;-58
2021/12/11 06:22:55;;;;;;;95.45;50.78;;;;;;;2.38;85.49;93739.98;1701201;83;21163;-58
2021/12/11 06:25:27;;;;;;;90.95;51.25;;;;;;;2.41;85.41;93762.20;1672182;83;21142;-59
2021/12/11 06:27:54;;;;;;;88.07;47.17;;;;;;;2.44;85.25;93768.72;1675576;83;22151;-60
2021/12/11 06:30:22;;;;;;;90.83;47.60;;;;;;;2.47;85.34;93765.94;1698035;83;21588;-58
2021/12/11 06:32:50;;;;;;;108.05;56.37;;;;;;;2.53;85.57;93761.55;1679553;83;21054;-58
2021/12/11 06:35:31;;;;;;;105.10;55.60;;;;;;;2.62;85.52;93748.76;1701923;83;21025;-60
2021/12/11 06:37:58;;;;;;;106.30;53.45;;;;;;;2.72;85.47;93751.84;1695518;83;21162;-60
2021/12/11 06:40:25;;;;;;;112.95;57.95;;;;;;;2.81;85.52;93754.73;1685045;83;21027;-60
2021/12/11 06:42:52;;;;;;;104.20;53.75;;;;;;;2.90;85.13;93755.69;1680882;83;21081;-59
2021/12/11 06:45:21;;;;;;;97.17;52.75;;;;;;;2.95;84.85;93751.71;1660155;84;21040;-59
2021/12/11 06:47:50;;;;;;;83.72;43.83;;;;;;;3.05;85.08;93761.59;1703034;83;21011;-61
2021/12/11 06:50:18;;;;;;;100.97;54.45;;;;;;;3.13;84.68;93762.94;1701696;83;21138;-64
2021/12/11 06:52:47;;;;;;;118.13;73.40;;;;;;;3.20;84.63;93768.23;1698061;83;20983;-59
2021/12/11 06:55:15;;;;;;;150.27;91.97;;;;;;;3.25;84.27;93779.94;1701436;83;20999;-59
2021/12/11 06:57:42;;;;;;;79.55;46.70;;;;;;;3.28;84.21;93789.95;1694470;83;21010;-60
2021/12/11 07:00:10;;;;;;;97.53;51.90;;;;;;;3.31;83.83;93808.12;1689555;83;20986;-60
2021/12/11 07:02:37;;;;;;;94.20;49.95;;;;;;;3.24;83.31;93815.09;1698630;83;21171;-58
2021/12/11 07:05:06;;;;;;;140.88;78.50;;;;;;;3.18;83.38;93834.42;1703999;83;21046;-60
2021/12/11 07:07:35;;;;;;;127.02;69.45;;;;;;;3.15;83.54;93829.84;1708979;83;21082;-59
2021/12/11 07:10:05;;;;;;;109.25;58.45;;;;;;;3.21;84.03;93818.66;1692218;83;21582;-60
2021/12/11 07:12:33;;;;;;;94.07;51.25;;;;;;;3.31;83.96;93812.20;1701814;83;21228;-59
2021/12/11 07:15:01;;;;;;;81.00;46.33;;;;;;;3.37;84.00;93790.12;1682869;83;21104;-59
2021/12/11 07:17:28;;;;;;;88.60;50.20;;;;;;;3.45;83.95;93791.50;1691733;83;21125;-61
2021/12/11 07:19:55;;;;;;;92.53;53.02;;;;;;;3.52;83.79;93796.17;1666491;83;21077;-59
2021/12/11 07:22:22;;;;;;;91.57;52.60;;;;;;;3.62;83.60;93805.42;1669526;83;21147;-59
2021/12/11 07:24:58;;;;;;;82.45;47.27;;;;;;;3.67;83.04;93813.06;1711005;83;21031;-60
2021/12/11 07:27:25;;;;;;;104.12;57.27;;;;;;;3.64;82.81;93831.59;1703237;83;21157;-62
2021/12/11 07:29:52;;;;;;;93.95;50.20;;;;;;;3.67;82.95;93836.18;1704242;83;21033;-61
2021/12/11 07:32:20;;;;;;;88.12;46.10;;;;;;;3.77;82.75;93850.71;1662016;84;21105;-60
2021/12/11 07:34:47;;;;;;;83.00;44.75;;;;;;;3.78;82.23;93858.45;1687070;82;21002;-59
2021/12/11 07:37:16;;;;;;;74.62;43.60;;;;;;;3.73;82.04;93855.48;1700742;83;20988;-61
2021/12/11 07:39:42;;;;;;;84.22;44.03;;;;;;;3.74;82.35;93853.70;1683948;83;21216;-61
2021/12/11 07:42:10;;;;;;;87.75;46.20;;;;;;;3.79;82.25;93842.89;1700675;83;21109;-61
2021/12/11 07:44:37;;;;;;;71.92;39.63;;;;;;;3.82;82.50;93831.93;1694802;83;21030;-66
2021/12/11 07:47:04;;;;;;;60.63;34.60;;;;;;;3.89;82.53;93842.63;1658086;83;21019;-69
2021/12/11 07:49:32;;;;;;;77.25;46.73;;;;;;;3.98;82.37;93859.70;1695544;83;21558;-61
2021/12/11 07:51:59;;;;;;;74.37;43.33;;;;;;;4.02;82.03;93862.52;1694355;83;21061;-61
2021/12/11 07:54:26;;;;;;;62.73;39.58;;;;;;;4.07;81.88;93862.61;1699286;82;21022;-60
2021/12/11 07:56:54;;;;;;;60.70;37.50;;;;;;;4.15;81.94;93852.48;1689599;82;21041;-61
2021/12/11 07:59:21;;;;;;;51.53;31.52;;;;;;;4.20;81.64;93865.56;1692159;83;21046;-61
2021/12/11 08:01:49;;;;;;;41.90;25.72;;;;;;;4.27;81.63;93877.61;1683243;83;21438;-60
2021/12/11 08:04:18;;;;;;;34.45;21.85;;;;;;;4.35;81.20;93871.39;1708643;83;21759;-60
2021/12/11 08:06:45;;;;;;;25.08;16.93;;;;;;;4.32;80.65;93870.89;1685221;82;20998;-62
2021/12/11 08:09:15;;;;;;;19.48;14.60;;;;;;;4.23;80.46;93896.00;1663317;83;21027;-62
2021/12/11 08:11:43;;;;;;;25.60;16.93;;;;;;;4.20;80.46;93908.36;1684442;83;21050;-62
2021/12/11 08:14:10;;;;;;;22.40;15.25;;;;;;;4.19;80.75;93921.19;1707091;83;21084;-64
2021/12/11 08:16:46;;;;;;;21.70;14.73;;;;;;;4.22;80.85;93914.89;1696504;83;21096;-59
2021/12/11 08:19:17;;;;;;;24.95;18.05;;;;;;;4.30;80.84;93925.78;1675657;83;21750;-59
2021/12/11 08:21:47;;;;;;;29.48;19.73;;;;;;;4.42;80.71;93933.23;1659515;83;21145;-61
2021/12/11 08:24:15;;;;;;;34.30;24.47;;;;;;;4.48;80.17;93927.47;1696926;82;21028;-59
2021/12/11 08:26:43;;;;;;;29.85;20.35;;;;;;;4.48;80.06;93923.38;1693707;83;21031;-61
2021/12/11 08:29:11;;;;;;;29.52;20.00;;;;;;;4.52;79.92;93921.91;1679513;83;22192;-61
2021/12/11 08:31:40;;;;;;;30.57;22.50;;;;;;;4.54;80.03;93932.55;1684098;82;21050;-60
2021/12/11 08:34:07;;;;;;;46.70;27.32;;;;;;;4.60;79.90;93937.64;1696278;83;21499;-60
2021/12/11 08:36:35;;;;;;;33.63;21.95;;;;;;;4.72;79.82;93951.14;1697761;83;21099;-60
2021/12/11 08:39:05;;;;;;;24.60;17.80;;;;;;;4.82;79.23;93961.77;1702190;83;21049;-59
2021/12/11 08:41:32;;;;;;;34.38;22.67;;;;;;;4.83;78.78;93963.91;1697875;83;21149;-61
2021/12/11 08:44:04;;;;;;;29.57;19.45;;;;;;;4.81;78.66;93960.23;1682050;83;21146;-61
2021/12/11 08:46:29;;;;;;;26.57;17.95;;;;;;;4.83;78.71;93958.45;1687910;83;21126;-60
2021/12/11 08:49:00;;;;;;;25.52;18.25;;;;;;;4.84;78.19;93966.80;1688776;82;21087;-60
2021/12/11 08:51:35;;;;;;;24.40;16.87;;;;;;;4.81;77.88;93971.74;1710782;83;21009;-61
2021/12/11 08:54:05;;;;;;;28.77;20.27;;;;;;;4.74;77.60;93956.34;1706981;83;21161;-59
2021/12/11 08:56:36;;;;;;;29.87;20.55;;;;;;;4.66;77.93;93965.91;1698186;82;21550;-62
2021/12/11 08:59:05;;;;;;;35.95;23.67;;;;;;;4.67;77.92;93960.62;1699118;82;21428;-59
2021/12/11 09:02:06;;;;;;;23.98;17.25;;;;;;;4.64;77.89;93961.45;1687924;83;21060;-60
2021/12/11 09:04:43;;;;;;;24.70;18.12;;;;;;;4.62;77.86;93959.02;1703463;82;21112;-61
2021/12/11 09:07:28;;;;;;;17.62;13.40;;;;;;;4.66;77.71;93966.48;1666020;83;21493;-60
2021/12/11 09:10:13;;;;;;;15.18;11.05;;;;;;;4.63;77.30;93960.54;1694687;82;21023;-60
2021/12/11 09:12:54;;;;;;;17.82;12.45;;;;;;;4.53;77.31;93965.06;1693515;82;21078;-60
2021/12/11 09:15:32;;;;;;;14.58;12.33;;;;;;;4.50;77.65;93958.34;1684573;83;21085;-61
2021/12/11 09:18:14;;;;;;;14.13;11.48;;;;;;;4.49;77.60;93949.42;1693201;83;21083;-61
2021/12/11 09:21:01;;;;;;;18.57;14.23;;;;;;;4.49;78.08;93946.69;1696949;83;21990;-60
2021/12/11 09:23:42;;;;;;;21.48;15.45;;;;;;;4.53;77.93;93954.17;1688087;83;21026;-60
2021/12/11 09:26:20;;;;;;;25.95;18.73;;;;;;;4.54;77.90;93948.11;1702865;83;21086;-61
2021/12/11 09:28:52;;;;;;;23.32;16.97;;;;;;;4.57;77.96;93950.75;1689328;83;21039;-59
2021/12/11 09:31:22;;;;;;;;;;;;;;;4.68;77.87;93951.26;1691838;82;21158;-62
2021/12/11 09:34:01;;;;;;;25.40;15.68;;;;;;;4.71;77.67;93938.72;1688198;83;21860;-63
2021/12/11 09:36:33;;;;;;;16.27;12.43;;;;;;;4.74;77.80;93938.64;1686599;83;21153;-61
2021/12/11 09:39:08;;;;;;;21.93;14.50;;;;;;;4.75;77.20;93936.08;1694631;83;21065;-61
2021/12/11 09:41:35;;;;;;;42.88;23.38;;;;;;;4.72;77.44;93929.35;1713820;83;21578;-63
2021/12/11 09:44:15;;;;;;;27.82;18.85;;;;;;;4.76;77.48;93930.05;1711236;83;21106;-64
2021/12/11 09:46:53;;;;;;;23.50;15.55;;;;;;;4.80;77.21;93938.27;1710505;83;21298;-61
2021/12/11 09:49:25;;;;;;;25.30;16.77;;;;;;;4.78;77.29;93942.03;1707854;83;21028;-62
2021/12/11 09:52:03;;;;;;;19.50;14.00;;;;;;;4.77;77.23;93943.22;1696505;83;21072;-66
2021/12/11 09:54:26;;;;;;;17.67;13.68;;;;;;;4.82;77.20;93938.61;1689408;83;21546;-63
2021/12/11 09:56:57;;;;;;;15.93;13.18;;;;;;;4.80;77.14;93945.08;1708168;83;21543;-61
2021/12/11 09:59:26;;;;;;;16.40;12.25;;;;;;;4.78;77.16;93951.56;1711617;83;21931;-61
2021/12/11 10:01:57;;;;;;;13.35;11.95;;;;;;;4.74;77.05;93948.17;1712830;82;21039;-60
2021/12/11 10:04:32;;;;;;;10.32;9.25;;;;;;;4.67;76.98;93945.64;1710519;83;21071;-67
2021/12/11 10:09:43;;;;;;;11.33;9.93;;;;;;;4.44;77.25;93958.08;1711696;83;21074;-60
2021/12/11 10:12:22;;;;;;;10.48;9.40;;;;;;;4.40;77.50;93964.22;1666092;83;21191;-60
2021/12/11 10:15:03;;;;;;;11.60;10.08;;;;;;;4.39;77.64;93960.58;1695542;82;21387;-60
2021/12/11 10:17:39;;;;;;;11.73;10.23;;;;;;;4.36;77.69;93954.02;1689246;83;21073;-60
2021/12/11 10:20:20;;;;;;;13.05;11.68;;;;;;;4.38;77.78;93958.44;1631984;85;21198;-61
2021/12/11 10:22:47;;;;;;;13.72;10.43;;;;;;;4.36;77.91;93949.93;1626067;86;21001;-61
2021/12/11 10:25:20;;;;;;;16.07;10.70;;;;;;;4.42;77.89;93956.38;1621888;87;21215;-61
2021/12/11 10:27:48;;;;;;;12.40;9.88;;;;;;;4.47;77.78;93957.25;1659430;85;21107;-61
2021/12/11 10:30:19;;;;;;;14.47;10.60;;;;;;;4.52;77.92;93951.86;1648827;83;21113;-60
2021/12/11 10:32:48;;;;;;;21.75;15.23;;;;;;;4.56;77.91;93950.59;1693791;83;21545;-62
2021/12/11 10:35:25;;;;;;;12.30;9.88;;;;;;;4.59;77.75;93955.17;1699733;83;20986;-60
2021/12/11 10:37:52;;;;;;;16.85;12.58;;;;;;;4.69;77.65;93956.87;1690647;83;21176;-60
2021/12/11 10:40:27;;;;;;;20.50;13.83;;;;;;;4.68;77.10;93953.20;1700227;83;21231;-61
2021/12/11 10:43:00;;;;;;;24.25;16.95;;;;;;;4.66;77.31;93949.56;1691854;83;21030;-66
2021/12/11 10:45:27;;;;;;;23.52;16.87;;;;;;;4.63;77.34;93944.95;1700734;83;21441;-61
2021/12/11 10:47:59;;;;;;;20.37;15.25;;;;;;;4.71;77.65;93943.59;1688075;83;21058;-62
2021/12/11 10:50:34;;;;;;;30.70;20.13;;;;;;;4.82;77.33;93939.22;1699264;83;21189;-63
2021/12/11 10:53:03;;;;;;;28.83;18.77;;;;;;;4.91;77.51;93942.85;1703717;83;21015;-61
2021/12/11 10:55:32;;;;;;;34.48;21.35;;;;;;;5.08;77.40;93938.88;1678087;83;21206;-60
2021/12/11 10:58:03;;;;;;;31.10;21.15;;;;;;;5.19;76.85;93943.42;1681758;83;21632;-60
2021/12/11 11:00:48;;;;;;;37.70;25.72;;;;;;;5.27;76.59;93950.22;1678883;84;21039;-61
2021/12/11 11:03:15;;;;;;;48.10;32.35;;;;;;;5.28;76.35;93946.30;1692935;83;21173;-61
2021/12/11 11:05:42;;;;;;;49.23;32.48;;;;;;;5.22;76.50;93946.67;1697507;83;21514;-61
2021/12/11 11:08:11;;;;;;;42.43;27.70;;;;;;;5.20;76.51;93951.02;1668907;84;21051;-61
2021/12/11 11:10:48;;;;;;;35.05;24.35;;;;;;;5.24;76.70;93942.91;1700555;84;21098;-62
2021/12/11 11:13:15;;;;;;;45.58;30.80;;;;;;;5.25;76.40;93952.00;1671763;84;21007;-60
2021/12/11 11:15:43;;;;;;;38.13;26.02;;;;;;;5.30;76.57;93949.36;1701321;84;21180;-61
2021/12/11 11:18:11;;;;;;;26.45;17.57;;;;;;;5.38;76.19;93947.97;1687518;83;21019;-60
2021/12/11 11:20:43;;;;;;;33.85;21.52;;;;;;;5.40;75.72;93949.67;1703540;82;21601;-61
2021/12/11 11:23:10;;;;;;;36.33;21.82;;;;;;;5.41;75.65;93955.28;1700360;83;21065;-61
2021/12/11 11:25:41;;;;;;;32.48;19.85;;;;;;;5.36;75.52;93962.61;1706250;82;21025;-61
2021/12/11 11:28:11;;;;;;;30.75;21.73;;;;;;;5.27;75.41;93952.95;1731102;81;21947;-62
2021/12/11 11:30:44;;;;;;;42.13;26.35;;;;;;;5.21;75.61;93961.50;1728971;82;21011;-61
2021/12/11 11:33:11;;;;;;;40.43;25.93;;;;;;;5.19;75.70;93959.03;1724478;81;21706;-61
2021/12/11 11:35:42;;;;;;;51.98;29.67;;;;;;;5.15;75.80;93956.39;1732148;82;21422;-61
2021/12/11 11:38:13;;;;;;;54.15;30.88;;;;;;;5.11;75.84;93959.83;1722152;82;21058;-61
2021/12/11 11:40:45;;;;;;;54.93;32.73;;;;;;;4.99;76.00;93961.89;1709187;81;21126;-61
2021/12/11 11:43:12;;;;;;;52.80;32.45;;;;;;;4.88;76.38;93958.70;1724553;81;21011;-60
2021/12/11 11:45:40;;;;;;;58.52;33.55;;;;;;;4.85;76.91;93963.66;1731984;81;21002;-61
2021/12/11 11:48:07;;;;;;;60.92;35.95;;;;;;;4.81;76.88;93964.32;1710222;82;21017;-61
2021/12/11 11:50:39;;;;;;;50.60;29.90;;;;;;;4.77;77.12;93973.19;1710741;82;21013;-62
2021/12/11 11:53:06;;;;;;;54.30;31.82;;;;;;;4.79;77.32;93973.52;1722737;82;21136;-62
2021/12/11 11:55:38;;;;;;;41.20;25.60;;;;;;;4.76;77.28;93979.84;1727511;81;21026;-60
2021/12/11 11:58:05;;;;;;;;;;;;;;;4.73;77.47;93984.00;1732754;81;20979;-61
2021/12/11 12:00:48;;;;;;;42.15;27.07;;;;;;;4.70;77.44;93981.56;1727426;82;20432;-61
2021/12/11 12:03:17;;;;;;;;;;;;;;;4.61;77.59;93982.74;1722669;81;21002;-59
2021/12/11 12:05:47;;;;;;;31.48;20.55;;;;;;;4.66;78.22;93980.11;1720924;82;21819;-61